createdAt,value
2018-04-19T00:00:37.373Z,95.17
2018-04-19T00:01:37.803Z,94.98
2018-04-19T00:03:40.152Z,95.17
2018-04-19T00:04:32.876Z,94.69
2018-04-19T00:06:39.712Z,94.89
2018-04-19T00:07:28.899Z,94.79
2018-04-19T00:13:47.647Z,95.07
2018-04-19T00:14:12.735Z,95.17
2018-04-19T00:16:15.055Z,94.89
2018-04-19T00:18:43.176Z,94.50
2018-04-19T00:21:15.526Z,95.17
2018-04-19T00:21:37.182Z,94.98
2018-04-19T00:23:31.750Z,94.79
2018-04-19T00:24:32.211Z,95.07
2018-04-19T00:26:26.758Z,94.12
2018-04-19T00:30:25.836Z,94.31
2018-04-19T00:31:15.020Z,94.89
2018-04-19T00:35:15.932Z,94.79
2018-04-19T00:39:09.711Z,94.50
2018-04-19T00:39:51.876Z,94.40
2018-04-19T00:41:49.783Z,94.21
2018-04-19T00:42:46.962Z,94.31
2018-04-19T00:44:41.525Z,94.69
2018-04-19T00:46:59.014Z,94.98
2018-04-19T00:49:11.164Z,94.98
2018-04-19T00:52:59.968Z,95.56
2018-04-19T00:54:01.396Z,95.75
2018-04-19T00:55:54.955Z,95.07
2018-04-19T00:56:55.389Z,95.17
2018-04-19T01:00:23.043Z,95.12
2018-04-19T01:03:09.033Z,94.93
2018-04-19T01:03:38.313Z,94.93
2018-04-19T01:12:24.575Z,93.88
2018-04-19T01:12:45.706Z,93.69
2018-04-19T01:16:32.983Z,93.40
2018-04-19T01:22:07.063Z,91.63
2018-04-19T01:22:35.743Z,90.67
2018-04-19T01:25:20.549Z,90.77
2018-04-19T01:26:09.740Z,90.48
2018-04-19T01:27:10.155Z,90.39
2018-04-19T01:28:10.585Z,90.10
2018-04-19T01:29:11.024Z,89.62
2018-04-19T01:30:11.463Z,89.34
2018-04-19T01:31:11.890Z,88.86
2018-04-19T01:32:12.331Z,88.86
2018-04-19T01:33:12.763Z,88.48
2018-04-19T01:34:13.184Z,88.09
2018-04-19T01:35:13.620Z,87.43
2018-04-19T01:36:14.063Z,87.62
2018-04-19T01:37:14.542Z,86.85
2018-04-19T01:38:14.924Z,87.23
2018-04-19T01:39:15.370Z,86.23
2018-04-19T01:40:15.786Z,86.37
2018-04-19T01:41:16.217Z,85.94
2018-04-19T01:42:16.659Z,85.75
2018-04-19T01:43:17.084Z,85.89
2018-04-19T01:44:17.765Z,86.76
2018-04-19T01:45:17.946Z,86.08
2018-04-19T01:46:18.385Z,86.52
2018-04-19T01:47:18.813Z,86.57
2018-04-19T01:48:19.447Z,85.89
2018-04-19T01:49:19.678Z,85.80
2018-04-19T01:50:20.111Z,86.76
2018-04-19T01:51:20.547Z,85.80
2018-04-19T01:52:21.028Z,85.80
2018-04-19T01:53:21.417Z,85.80
2018-04-19T01:54:21.854Z,85.61
2018-04-19T01:55:22.276Z,85.13
2018-04-19T01:56:22.707Z,84.99
2018-04-19T01:57:23.149Z,84.61
2018-04-19T01:58:23.717Z,84.42
2018-04-19T01:59:24.003Z,85.13
2018-04-19T02:00:24.440Z,85.61
2018-04-19T02:01:24.878Z,84.42
2018-04-19T02:02:25.635Z,84.84
2018-04-19T02:03:25.740Z,85.80
2018-04-19T02:04:26.180Z,85.22
2018-04-19T02:05:26.599Z,83.65
2018-04-19T02:06:27.037Z,83.65
2018-04-19T02:07:27.470Z,83.37
2018-04-19T02:08:27.901Z,83.27
2018-04-19T02:09:28.334Z,83.08
2018-04-19T02:10:28.791Z,83.65
2018-04-19T02:11:29.196Z,83.17
2018-04-19T02:12:29.626Z,83.50
2018-04-19T02:14:06.046Z,84.65
2018-04-19T02:16:03.587Z,82.89
2018-04-19T02:17:04.017Z,82.70
2018-04-19T02:18:58.575Z,81.74
2018-04-19T02:19:59.003Z,81.65
2018-04-19T02:23:28.605Z,80.21
2018-04-19T02:27:16.445Z,79.54
2018-04-19T02:29:32.118Z,78.87
2018-04-19T02:30:32.550Z,78.11
2018-04-19T02:32:28.108Z,78.78
2018-04-19T02:33:28.535Z,79.93
2018-04-19T02:35:38.444Z,79.83
2018-04-19T02:36:24.519Z,80.30
2018-04-19T02:40:15.936Z,79.06
2018-04-19T02:40:52.631Z,79.16
2018-04-19T02:42:48.180Z,79.35
2018-04-19T02:43:48.614Z,78.49
2018-04-19T02:45:44.155Z,77.63
2018-04-19T02:46:44.609Z,77.53
2018-04-19T02:48:40.159Z,78.97
2018-04-19T02:53:09.201Z,81.93
2018-04-19T02:53:30.366Z,82.12
2018-04-19T02:55:24.904Z,82.60
2018-04-19T02:56:25.333Z,80.88
2018-04-19T02:57:25.768Z,80.30
2018-04-19T02:58:26.195Z,80.59
2018-04-19T02:59:26.646Z,80.59
2018-04-19T03:00:27.064Z,81.84
2018-04-19T03:01:27.496Z,82.03
2018-04-19T03:02:27.947Z,82.51
2018-04-19T03:04:04.201Z,82.79
2018-04-19T03:04:28.791Z,82.60
2018-04-19T03:05:29.229Z,80.11
2018-04-19T03:06:29.657Z,80.69
2018-04-19T03:07:30.083Z,81.16
2018-04-19T03:08:30.527Z,79.54
2018-04-19T03:09:30.960Z,78.68
2018-04-19T03:10:31.390Z,78.49
2018-04-19T03:11:31.897Z,78.39
2018-04-19T03:14:10.620Z,76.86
2018-04-19T03:18:24.471Z,75.24
2018-04-19T03:20:07.903Z,75.43
2018-04-19T03:21:08.342Z,75.81
2018-04-19T03:23:03.913Z,77.15
2018-04-19T03:24:04.312Z,78.39
2018-04-19T03:25:59.367Z,78.20
2018-04-19T03:26:59.810Z,78.87
2018-04-19T03:28:54.405Z,78.68
2018-04-19T03:31:31.231Z,79.44
2018-04-19T03:33:38.609Z,80.21
2018-04-19T03:34:26.065Z,79.54
2018-04-19T03:36:34.078Z,79.73
2018-04-19T03:37:20.244Z,80.50
2018-04-19T03:39:14.810Z,80.11
2018-04-19T03:40:15.242Z,80.02
2018-04-19T03:43:43.877Z,80.30
2018-04-19T03:44:44.301Z,80.21
2018-04-19T03:46:38.882Z,78.97
2018-04-19T03:48:53.603Z,77.06
2018-04-19T03:49:54.024Z,77.25
2018-04-19T03:51:48.602Z,78.78
2018-04-19T03:52:49.046Z,79.73
2018-04-19T03:56:16.720Z,80.02
2018-04-19T03:57:17.163Z,80.21
2018-04-19T03:59:12.218Z,80.02
2018-04-19T04:00:12.644Z,78.49
2018-04-19T04:02:07.221Z,79.06
2018-04-19T04:06:32.765Z,79.54
2018-04-19T04:08:28.002Z,79.44
2018-04-19T04:09:10.174Z,79.44
2018-04-19T04:11:08.016Z,79.06
2018-04-19T04:13:30.279Z,76.10
2018-04-19T04:14:19.945Z,75.62
2018-04-19T04:15:20.372Z,74.57
2018-04-19T04:16:20.811Z,74.05
2018-04-19T04:21:02.696Z,72.53
2018-04-19T04:23:03.354Z,73.33
2018-04-19T04:23:42.581Z,73.71
2018-04-19T04:27:28.524Z,73.43
2018-04-19T04:29:24.977Z,74.57
2018-04-19T04:30:25.405Z,74.38
2018-04-19T04:31:40.703Z,74.09
2018-04-19T04:32:26.276Z,73.43
2018-04-19T04:33:26.705Z,73.43
2018-04-19T04:36:00.256Z,71.99
2018-04-19T04:38:26.237Z,70.36
2018-04-19T04:40:29.817Z,70.42
2018-04-19T04:41:30.241Z,69.95
2018-04-19T04:43:59.581Z,69.09
2018-04-19T04:44:25.249Z,68.70
2018-04-19T04:50:59.351Z,71.61
2018-04-19T04:51:59.512Z,71.51
2018-04-19T04:53:54.111Z,70.46
2018-04-19T04:54:57.330Z,69.98
2018-04-19T04:56:49.112Z,72.18
2018-04-19T04:57:49.535Z,73.23
2018-04-19T05:01:18.182Z,73.43
2018-04-19T05:03:54.072Z,74.09
2018-04-19T05:06:28.912Z,75.91
2018-04-19T05:07:29.350Z,75.71
2018-04-19T05:08:29.758Z,76.20
2018-04-19T05:09:30.199Z,76.48
2018-04-19T05:10:30.629Z,76.57
2018-04-19T05:11:31.061Z,76.48
2018-04-19T05:14:35.869Z,76.77
2018-04-19T05:17:53.391Z,79.00
2018-04-19T05:18:53.817Z,78.24
2018-04-19T05:20:49.420Z,77.95
2018-04-19T05:21:49.849Z,77.48
2018-04-19T05:23:59.681Z,78.24
2018-04-19T05:24:46.742Z,78.34
2018-04-19T05:26:55.670Z,79.20
2018-04-19T05:29:22.392Z,78.34
2018-04-19T05:29:56.548Z,78.91
2018-04-19T05:31:51.125Z,78.24
2018-04-19T05:32:51.560Z,78.91
2018-04-19T05:33:51.987Z,79.00
2018-04-19T05:34:52.468Z,80.25
2018-04-19T05:35:52.913Z,80.54
2018-04-19T05:36:53.291Z,80.38
2018-04-19T05:37:53.719Z,80.96
2018-04-19T05:38:54.159Z,80.77
2018-04-19T05:39:54.610Z,81.34
2018-04-19T05:40:55.018Z,81.34
2018-04-19T05:41:55.485Z,81.34
2018-04-19T05:42:55.895Z,81.44
2018-04-19T05:43:56.330Z,81.92
2018-04-19T05:44:56.762Z,81.73
2018-04-19T05:45:57.194Z,81.92
2018-04-19T05:46:57.616Z,82.01
2018-04-19T05:47:58.055Z,81.92
2018-04-19T05:48:58.497Z,82.92
2018-04-19T05:49:58.917Z,83.11
2018-04-19T05:50:59.361Z,82.73
2018-04-19T05:51:59.798Z,83.20
2018-04-19T05:53:00.220Z,83.68
2018-04-19T05:54:00.671Z,84.26
2018-04-19T05:55:01.093Z,83.59
2018-04-19T05:56:01.527Z,84.16
2018-04-19T05:57:01.968Z,83.97
2018-04-19T05:58:02.480Z,84.16
2018-04-19T05:59:02.829Z,84.06
2018-04-19T06:00:03.258Z,84.30
2018-04-19T06:01:03.690Z,84.49
2018-04-19T06:02:04.130Z,84.88
2018-04-19T06:03:04.611Z,85.06
2018-04-19T06:04:04.996Z,85.16
2018-04-19T06:05:05.432Z,85.16
2018-04-19T06:06:05.878Z,85.16
2018-04-19T06:07:06.299Z,85.35
2018-04-19T06:08:06.751Z,85.45
2018-04-19T06:09:07.188Z,85.64
2018-04-19T06:10:07.615Z,85.49
2018-04-19T06:11:08.041Z,85.97
2018-04-19T06:12:08.477Z,86.35
2018-04-19T06:13:08.910Z,86.93
2018-04-19T06:14:09.348Z,86.64
2018-04-19T06:15:09.793Z,86.54
2018-04-19T06:16:10.218Z,86.93
2018-04-19T06:17:10.662Z,86.54
2018-04-19T06:18:11.094Z,86.64
2018-04-19T06:19:11.531Z,87.16
2018-04-19T06:20:11.965Z,86.58
2018-04-19T06:21:12.395Z,87.64
2018-04-19T06:22:13.285Z,87.26
2018-04-19T06:23:13.512Z,87.59
2018-04-19T06:24:13.854Z,87.21
2018-04-19T06:25:14.370Z,87.11
2018-04-19T06:26:14.633Z,87.68
2018-04-19T06:27:15.236Z,87.68
2018-04-19T06:28:15.591Z,88.07
2018-04-19T06:29:15.887Z,88.17
2018-04-19T06:30:16.377Z,87.88
2018-04-19T06:31:16.757Z,88.07
2018-04-19T06:32:17.193Z,88.07
2018-04-19T06:33:17.630Z,88.17
2018-04-19T06:34:18.067Z,88.45
2018-04-19T06:35:18.510Z,88.35
2018-04-19T06:36:18.944Z,88.40
2018-04-19T06:37:19.472Z,88.84
2018-04-19T06:38:19.818Z,88.79
2018-04-19T06:39:20.254Z,88.02
2018-04-19T06:40:20.695Z,88.11
2018-04-19T06:41:21.124Z,88.69
2018-04-19T06:42:21.560Z,88.59
2018-04-19T06:43:22.026Z,89.07
2018-04-19T06:44:22.437Z,88.59
2018-04-19T06:45:22.880Z,88.83
2018-04-19T06:46:23.312Z,88.06
2018-04-19T06:47:23.750Z,88.93
2018-04-19T06:48:24.189Z,88.54
2018-04-19T06:49:24.631Z,88.35
2018-04-19T06:50:25.060Z,88.54
2018-04-19T06:51:25.500Z,88.25
2018-04-19T06:52:25.938Z,88.20
2018-04-19T06:53:26.378Z,88.39
2018-04-19T06:54:26.822Z,88.30
2018-04-19T06:55:27.251Z,87.62
2018-04-19T06:56:27.690Z,88.01
2018-04-19T06:57:28.127Z,87.86
2018-04-19T06:58:28.567Z,87.38
2018-04-19T06:59:29.005Z,87.57
2018-04-19T07:00:29.444Z,87.29
2018-04-19T07:01:29.889Z,87.19
2018-04-19T07:02:30.322Z,87.09
2018-04-19T07:03:30.762Z,86.99
2018-04-19T07:04:31.198Z,87.04
2018-04-19T07:05:31.642Z,87.48
2018-04-19T07:06:34.969Z,87.33
2018-04-19T07:07:32.520Z,87.04
2018-04-19T07:08:32.959Z,86.36
2018-04-19T07:09:33.402Z,86.56
2018-04-19T07:10:33.843Z,86.02
2018-04-19T07:11:34.286Z,86.22
2018-04-19T07:12:34.723Z,85.64
2018-04-19T07:13:35.164Z,85.74
2018-04-19T07:14:35.625Z,85.68
2018-04-19T07:15:36.048Z,85.49
2018-04-19T07:16:36.482Z,84.86
2018-04-19T07:17:36.924Z,84.66
2018-04-19T07:18:37.368Z,84.18
2018-04-19T07:19:37.803Z,83.94
2018-04-19T07:20:38.248Z,83.16
2018-04-19T07:21:38.688Z,82.59
2018-04-19T07:22:39.147Z,82.20
2018-04-19T07:23:39.578Z,81.66
2018-04-19T07:24:40.014Z,81.18
2018-04-19T07:25:40.458Z,80.31
2018-04-19T07:26:40.905Z,80.60
2018-04-19T07:27:41.339Z,80.79
2018-04-19T07:28:41.787Z,80.60
2018-04-19T07:29:42.226Z,79.39
2018-04-19T07:30:42.673Z,79.49
2018-04-19T07:31:43.116Z,79.19
2018-04-19T07:32:43.557Z,79.10
2018-04-19T07:33:44.012Z,78.46
2018-04-19T07:35:12.441Z,77.59
2018-04-19T07:35:59.429Z,76.82
2018-04-19T07:36:45.339Z,77.30
2018-04-19T07:37:45.792Z,76.05
2018-04-19T07:38:46.237Z,76.15
2018-04-19T07:39:46.689Z,76.24
2018-04-19T07:40:47.128Z,76.24
2018-04-19T07:41:47.576Z,76.09
2018-04-19T07:42:48.026Z,75.99
2018-04-19T07:43:48.476Z,75.70
2018-04-19T07:44:48.924Z,75.41
2018-04-19T07:45:49.374Z,74.77
2018-04-19T07:46:49.825Z,74.42
2018-04-19T07:47:50.334Z,72.39
2018-04-19T07:48:50.836Z,73.19
2018-04-19T07:49:57.985Z,74.73
2018-04-19T07:50:51.644Z,73.07
2018-04-19T07:52:13.255Z,71.36
2018-04-19T07:52:52.585Z,70.40
2018-04-19T07:53:52.995Z,70.43
2018-04-19T07:54:53.455Z,71.30
2018-04-19T07:55:53.899Z,70.68
2018-04-19T07:56:54.354Z,68.98
2018-04-19T07:57:54.866Z,68.88
2018-04-19T07:58:55.265Z,67.56
2018-04-19T08:01:28.884Z,65.95
2018-04-19T08:02:29.308Z,65.37
2018-04-19T08:04:23.943Z,65.08
2018-04-19T08:05:24.416Z,64.98
2018-04-19T08:07:27.469Z,64.53
2018-04-19T08:08:19.557Z,64.40
2018-04-19T08:10:15.045Z,60.19
2018-04-19T08:11:15.530Z,58.47
2018-04-19T08:13:10.547Z,56.85
2018-04-19T08:14:11.001Z,56.76
2018-04-19T08:15:11.526Z,58.40
2018-04-19T08:16:11.919Z,55.64
2018-04-19T08:17:12.381Z,53.72
2018-04-19T08:18:12.839Z,52.12
2018-04-19T08:19:13.302Z,51.78
2018-04-19T08:20:13.762Z,48.78
2018-04-19T08:21:14.221Z,47.68
2018-04-19T08:22:14.750Z,48.32
2018-04-19T08:23:15.153Z,46.14
2018-04-19T08:24:15.607Z,46.34
2018-04-19T08:25:16.072Z,47.15
2018-04-19T08:26:16.529Z,48.10
2018-04-19T08:27:17.818Z,48.34
2018-04-19T08:28:17.459Z,47.15
2018-04-19T08:29:17.923Z,47.44
2018-04-19T08:30:18.382Z,47.66
2018-04-19T08:31:18.849Z,47.41
2018-04-19T08:32:19.313Z,44.73
2018-04-19T08:33:19.772Z,46.29
2018-04-19T08:34:34.824Z,43.38
2018-04-19T08:35:20.702Z,43.44
2018-04-19T08:36:21.164Z,41.33
2018-04-19T08:37:21.633Z,40.37
2018-04-19T08:38:22.096Z,39.17
2018-04-19T08:39:22.554Z,39.33
2018-04-19T08:40:23.030Z,39.98
2018-04-19T08:41:23.490Z,41.23
2018-04-19T08:42:24.001Z,40.66
2018-04-19T08:43:24.422Z,40.74
2018-04-19T08:44:39.884Z,41.03
2018-04-19T08:45:25.357Z,41.17
2018-04-19T08:46:25.819Z,40.72
2018-04-19T08:47:26.289Z,38.20
2018-04-19T08:48:41.338Z,38.21
2018-04-19T08:49:27.224Z,37.96
2018-04-19T08:50:27.681Z,39.28
2018-04-19T08:51:28.159Z,39.57
2018-04-19T08:52:35.346Z,40.39
2018-04-19T08:53:29.085Z,39.43
2018-04-19T08:54:29.560Z,38.88
2018-04-19T08:56:51.654Z,37.54
2018-04-19T08:57:30.952Z,36.88
2018-04-19T09:00:07.867Z,34.42
2018-04-19T09:01:05.037Z,35.44
2018-04-19T09:02:05.510Z,35.56
2018-04-19T09:03:05.976Z,41.85
2018-04-19T09:04:06.446Z,42.02
2018-04-19T09:05:06.929Z,46.06
2018-04-19T09:06:07.431Z,44.56
2018-04-19T09:07:07.851Z,41.56
2018-04-19T09:08:08.334Z,38.02
2018-04-19T09:09:08.789Z,38.00
2018-04-19T09:10:09.251Z,36.55
2018-04-19T09:11:09.724Z,36.51
2018-04-19T09:12:10.208Z,35.81
2018-04-19T09:13:10.666Z,39.17
2018-04-19T09:14:11.135Z,36.21
2018-04-19T09:15:11.604Z,34.69
2018-04-19T09:16:12.084Z,33.25
2018-04-19T09:17:12.568Z,39.12
2018-04-19T09:18:13.018Z,40.25
2018-04-19T09:19:13.485Z,37.02
2018-04-19T09:20:13.952Z,37.83
2018-04-19T09:21:14.429Z,42.50
2018-04-19T09:22:14.924Z,47.30
2018-04-19T09:23:15.377Z,47.69
2018-04-19T09:24:15.840Z,49.39
2018-04-19T09:25:16.312Z,47.81
2018-04-19T09:26:16.789Z,46.64
2018-04-19T09:27:17.289Z,47.32
2018-04-19T09:28:17.731Z,46.59
2018-04-19T09:29:18.208Z,43.32
2018-04-19T09:30:18.667Z,40.70
2018-04-19T09:31:19.139Z,37.74
2018-04-19T09:32:20.343Z,36.47
2018-04-19T09:33:20.096Z,35.44
2018-04-19T09:34:20.554Z,35.16
2018-04-19T09:35:21.019Z,39.86
2018-04-19T09:36:21.491Z,43.01
2018-04-19T09:37:21.961Z,44.90
2018-04-19T09:38:23.332Z,41.58
2018-04-19T09:39:22.904Z,37.02
2018-04-19T09:40:23.378Z,35.21
2018-04-19T09:41:23.849Z,36.63
2018-04-19T09:42:24.321Z,42.35
2018-04-19T09:43:24.802Z,42.93
2018-04-19T09:44:25.270Z,39.25
2018-04-19T09:45:25.741Z,35.80
2018-04-19T09:46:26.210Z,37.32
2018-04-19T09:47:26.686Z,41.50
2018-04-19T09:48:27.161Z,44.09
2018-04-19T09:49:27.628Z,43.00
2018-04-19T09:50:28.104Z,41.67
2018-04-19T09:51:28.579Z,43.18
2018-04-19T09:52:29.076Z,47.18
2018-04-19T09:53:29.522Z,48.64
2018-04-19T09:54:29.991Z,46.08
2018-04-19T09:55:30.466Z,41.71
2018-04-19T09:56:30.942Z,42.86
2018-04-19T09:57:31.413Z,43.61
2018-04-19T09:58:31.888Z,39.12
2018-04-19T09:59:32.355Z,36.84
2018-04-19T10:00:32.824Z,36.30
2018-04-19T10:01:33.305Z,36.47
2018-04-19T10:02:33.770Z,38.41
2018-04-19T10:03:34.247Z,34.54
2018-04-19T10:04:34.725Z,33.49
2018-04-19T10:05:35.192Z,33.29
2018-04-19T10:06:35.701Z,32.33
2018-04-19T10:07:36.136Z,32.31
2018-04-19T10:08:36.617Z,33.08
2018-04-19T10:09:37.086Z,33.10
2018-04-19T10:10:37.560Z,31.82
2018-04-19T10:11:38.030Z,32.04
2018-04-19T10:12:38.510Z,30.87
2018-04-19T10:13:38.977Z,30.98
2018-04-19T10:14:39.462Z,30.91
2018-04-19T10:15:39.924Z,30.85
2018-04-19T10:16:40.399Z,29.14
2018-04-19T10:17:40.878Z,31.07
2018-04-19T10:18:41.347Z,31.92
2018-04-19T10:19:41.821Z,33.04
2018-04-19T10:20:42.295Z,33.13
2018-04-19T10:21:42.773Z,33.90
2018-04-19T10:22:43.252Z,35.05
2018-04-19T10:23:43.718Z,31.71
2018-04-19T10:24:44.191Z,31.79
2018-04-19T10:25:44.671Z,31.63
2018-04-19T10:26:45.147Z,30.94
2018-04-19T10:27:45.615Z,33.18
2018-04-19T10:28:46.086Z,31.38
2018-04-19T10:29:46.566Z,30.88
2018-04-19T10:30:47.042Z,30.24
2018-04-19T10:31:47.512Z,28.79
2018-04-19T10:32:47.980Z,28.85
2018-04-19T10:33:48.481Z,30.36
2018-04-19T10:34:48.932Z,34.68
2018-04-19T10:35:49.403Z,39.00
2018-04-19T10:36:49.877Z,36.94
2018-04-19T10:37:50.344Z,39.28
2018-04-19T10:38:50.823Z,39.59
2018-04-19T10:39:51.302Z,36.77
2018-04-19T10:40:51.765Z,34.00
2018-04-19T10:41:52.236Z,32.48
2018-04-19T10:42:52.725Z,31.43
2018-04-19T10:43:53.186Z,34.62
2018-04-19T10:44:53.653Z,39.43
2018-04-19T10:45:54.131Z,38.12
2018-04-19T10:46:54.599Z,35.55
2018-04-19T10:47:55.082Z,35.52
2018-04-19T10:48:55.545Z,36.66
2018-04-19T10:49:56.020Z,38.30
2018-04-19T10:50:56.493Z,34.75
2018-04-19T10:51:56.968Z,33.77
2018-04-19T10:52:57.433Z,33.89
2018-04-19T10:53:57.907Z,35.34
2018-04-19T10:54:58.388Z,36.93
2018-04-19T10:55:58.853Z,38.77
2018-04-19T10:56:59.322Z,41.67
2018-04-19T10:57:59.804Z,39.37
2018-04-19T10:59:00.277Z,36.63
2018-04-19T11:00:00.742Z,40.31
2018-04-19T11:01:01.241Z,41.38
2018-04-19T11:02:01.695Z,42.80
2018-04-19T11:03:02.166Z,43.85
2018-04-19T11:04:02.640Z,41.19
2018-04-19T11:05:03.120Z,36.57
2018-04-19T11:06:03.581Z,34.47
2018-04-19T11:07:04.059Z,35.24
2018-04-19T11:08:04.535Z,34.36
2018-04-19T11:09:05.000Z,35.79
2018-04-19T11:10:05.477Z,33.54
2018-04-19T11:11:05.952Z,33.12
2018-04-19T11:12:06.431Z,33.64
2018-04-19T11:13:06.898Z,35.55
2018-04-19T11:14:07.374Z,37.95
2018-04-19T11:15:07.848Z,38.28
2018-04-19T11:16:08.321Z,37.00
2018-04-19T11:17:08.800Z,32.98
2018-04-19T11:18:09.274Z,32.25
2018-04-19T11:19:09.762Z,32.23
2018-04-19T11:20:10.222Z,37.79
2018-04-19T11:21:10.706Z,37.34
2018-04-19T11:22:11.176Z,35.06
2018-04-19T11:23:11.654Z,33.38
2018-04-19T11:24:12.122Z,30.68
2018-04-19T11:25:12.600Z,30.46
2018-04-19T11:26:13.083Z,30.49
2018-04-19T11:27:13.547Z,30.63
2018-04-19T11:28:14.034Z,32.02
2018-04-19T11:29:14.502Z,30.85
2018-04-19T11:30:14.977Z,30.76
2018-04-19T11:31:15.453Z,33.07
2018-04-19T11:32:15.970Z,37.63
2018-04-19T11:33:16.441Z,36.24
2018-04-19T11:34:16.881Z,35.38
2018-04-19T11:35:17.351Z,36.57
2018-04-19T11:36:17.824Z,37.12
2018-04-19T11:37:18.301Z,34.75
2018-04-19T11:38:18.776Z,33.74
2018-04-19T11:39:19.248Z,38.87
2018-04-19T11:40:19.724Z,40.13
2018-04-19T11:41:20.194Z,40.33
2018-04-19T11:42:20.669Z,39.94
2018-04-19T11:43:21.132Z,42.44
2018-04-19T11:44:21.608Z,44.75
2018-04-19T11:45:22.067Z,43.05
2018-04-19T11:46:22.538Z,42.49
2018-04-19T11:47:23.006Z,42.58
2018-04-19T11:48:23.470Z,44.31
2018-04-19T11:49:23.930Z,44.58
2018-04-19T11:50:24.393Z,47.86
2018-04-19T11:51:24.853Z,50.14
2018-04-19T11:52:25.313Z,51.66
2018-04-19T11:53:25.771Z,52.73
2018-04-19T11:54:26.233Z,52.82
2018-04-19T11:55:26.689Z,53.21
2018-04-19T11:56:27.147Z,51.62
2018-04-19T11:57:27.607Z,51.06
2018-04-19T11:58:28.058Z,50.12
2018-04-19T11:59:28.564Z,49.92
2018-04-19T12:00:28.975Z,49.17
2018-04-19T12:01:29.427Z,48.10
2018-04-19T12:02:29.883Z,48.30
2018-04-19T12:03:30.331Z,48.10
2018-04-19T12:04:30.786Z,48.78
2018-04-19T12:05:31.239Z,48.10
2018-04-19T12:06:31.692Z,48.88
2018-04-19T12:07:32.159Z,49.17
2018-04-19T12:08:32.599Z,49.07
2018-04-19T12:09:33.047Z,49.27
2018-04-19T12:10:33.504Z,48.97
2018-04-19T12:11:33.956Z,49.73
2018-04-19T12:12:34.405Z,49.92
2018-04-19T12:13:34.900Z,49.92
2018-04-19T12:14:35.311Z,49.92
2018-04-19T12:15:35.758Z,49.90
2018-04-19T12:16:36.205Z,49.82
2018-04-19T12:17:36.660Z,49.99
2018-04-19T12:18:37.110Z,50.87
2018-04-19T12:19:37.560Z,50.70
2018-04-19T12:20:38.005Z,50.02
2018-04-19T12:21:38.463Z,51.25
2018-04-19T12:22:38.907Z,50.67
2018-04-19T12:23:39.359Z,49.73
2018-04-19T12:24:39.813Z,49.54
2018-04-19T12:25:40.257Z,49.15
2018-04-19T12:26:40.709Z,50.77
2018-04-19T12:27:41.163Z,50.43
2018-04-19T12:28:41.605Z,51.18
2018-04-19T12:29:42.057Z,51.40
2018-04-19T12:30:42.515Z,52.49
2018-04-19T12:31:42.956Z,52.27
2018-04-19T12:32:43.405Z,52.20
2018-04-19T12:33:43.857Z,52.29
2018-04-19T12:34:44.307Z,51.45
2018-04-19T12:35:44.762Z,52.95
2018-04-19T12:36:45.204Z,53.53
2018-04-19T12:37:45.652Z,52.66
2018-04-19T12:38:46.107Z,52.39
2018-04-19T12:39:46.551Z,52.75
2018-04-19T12:40:47.004Z,53.47
2018-04-19T12:41:47.457Z,53.89
2018-04-19T12:42:47.900Z,53.89
2018-04-19T12:43:48.351Z,53.11
2018-04-19T12:44:48.796Z,53.41
2018-04-19T12:45:49.244Z,52.95
2018-04-19T12:46:49.694Z,52.87
2018-04-19T12:47:50.144Z,52.87
2018-04-19T12:48:50.593Z,52.58
2018-04-19T12:49:51.041Z,52.51
2018-04-19T12:50:51.486Z,52.61
2018-04-19T12:51:51.934Z,52.75
2018-04-19T12:52:52.392Z,52.20
2018-04-19T12:53:52.836Z,52.95
2018-04-19T12:54:53.284Z,52.95
2018-04-19T12:55:53.761Z,51.81
2018-04-19T12:56:54.217Z,51.40
2018-04-19T12:57:54.630Z,51.42
2018-04-19T12:58:55.072Z,49.68
2018-04-19T12:59:55.521Z,50.45
2018-04-19T13:00:55.969Z,49.77
2018-04-19T13:01:56.414Z,49.29
2018-04-19T13:02:56.872Z,47.74
2018-04-19T13:03:57.315Z,47.26
2018-04-19T13:04:57.757Z,48.22
2018-04-19T13:05:58.210Z,47.62
2018-04-19T13:06:58.661Z,47.84
2018-04-19T13:07:59.114Z,47.06
2018-04-19T13:08:59.561Z,47.55
2018-04-19T13:10:00.005Z,47.06
2018-04-19T13:11:00.450Z,47.06
2018-04-19T13:12:00.897Z,47.06
2018-04-19T13:13:01.341Z,46.77
2018-04-19T13:14:01.805Z,47.64
2018-04-19T13:15:02.249Z,47.64
2018-04-19T13:16:02.696Z,47.77
2018-04-19T13:17:03.137Z,48.03
2018-04-19T13:18:03.596Z,48.61
2018-04-19T13:19:04.045Z,48.83
2018-04-19T13:20:04.480Z,48.25
2018-04-19T13:21:04.924Z,48.06
2018-04-19T13:22:05.386Z,47.94
2018-04-19T13:23:05.815Z,48.06
2018-04-19T13:24:06.284Z,48.61
2018-04-19T13:25:06.716Z,48.42
2018-04-19T13:26:07.160Z,48.81
2018-04-19T13:27:07.611Z,49.19
2018-04-19T13:28:08.059Z,49.87
2018-04-19T13:29:08.508Z,49.97
2018-04-19T13:30:08.955Z,50.26
2018-04-19T13:31:09.400Z,50.35
2018-04-19T13:32:09.857Z,50.55
2018-04-19T13:33:10.293Z,50.26
2018-04-19T13:34:10.739Z,50.74
2018-04-19T13:35:11.203Z,50.65
2018-04-19T13:36:11.637Z,50.16
2018-04-19T13:37:12.086Z,49.87
2018-04-19T13:38:12.543Z,49.87
2018-04-19T13:39:12.977Z,49.29
2018-04-19T13:40:13.426Z,49.19
2018-04-19T13:41:13.872Z,49.10
2018-04-19T13:42:14.322Z,49.00
2018-04-19T13:43:14.771Z,49.87
2018-04-19T13:44:15.213Z,49.87
2018-04-19T13:45:15.659Z,49.29
2018-04-19T13:46:16.106Z,49.87
2018-04-19T13:47:16.556Z,50.74
2018-04-19T13:48:17.003Z,52.17
2018-04-19T13:49:17.446Z,52.17
2018-04-19T13:50:17.901Z,52.97
2018-04-19T13:51:18.347Z,52.58
2018-04-19T13:52:18.794Z,52.39
2018-04-19T13:53:19.240Z,51.23
2018-04-19T13:54:19.694Z,50.87
2018-04-19T13:55:20.140Z,50.77
2018-04-19T13:56:20.606Z,50.60
2018-04-19T13:57:21.033Z,50.38
2018-04-19T13:58:21.480Z,50.19
2018-04-19T13:59:21.926Z,50.38
2018-04-19T14:00:22.373Z,49.99
2018-04-19T14:01:22.824Z,50.35
2018-04-19T14:02:23.274Z,50.48
2018-04-19T14:03:23.720Z,50.57
2018-04-19T14:04:24.165Z,49.99
2018-04-19T14:05:24.647Z,50.19
2018-04-19T14:06:25.067Z,50.57
2018-04-19T14:07:25.507Z,50.57
2018-04-19T14:08:25.964Z,50.48
2018-04-19T14:09:26.405Z,51.06
2018-04-19T14:10:26.856Z,51.16
2018-04-19T14:11:27.301Z,51.35
2018-04-19T14:12:27.749Z,51.16
2018-04-19T14:13:28.200Z,50.96
2018-04-19T14:14:28.644Z,50.12
2018-04-19T14:15:29.097Z,50.12
2018-04-19T14:16:29.548Z,49.92
2018-04-19T14:17:29.989Z,50.19
2018-04-19T14:18:30.439Z,51.42
2018-04-19T14:19:30.892Z,51.74
2018-04-19T14:20:31.329Z,52.20
2018-04-19T14:21:31.780Z,51.16
2018-04-19T14:22:32.226Z,51.45
2018-04-19T14:23:32.677Z,50.48
2018-04-19T14:24:33.121Z,51.16
2018-04-19T14:25:33.569Z,51.35
2018-04-19T14:26:34.021Z,51.32
2018-04-19T14:27:34.467Z,51.13
2018-04-19T14:28:34.922Z,51.23
2018-04-19T14:29:35.360Z,50.74
2018-04-19T14:30:35.809Z,51.30
2018-04-19T14:31:36.260Z,51.62
2018-04-19T14:32:36.711Z,51.35
2018-04-19T14:33:37.154Z,50.57
2018-04-19T14:34:37.602Z,50.48
2018-04-19T14:35:38.049Z,50.57
2018-04-19T14:36:38.497Z,50.29
2018-04-19T14:37:38.945Z,50.87
2018-04-19T14:38:39.393Z,51.16
2018-04-19T14:39:39.844Z,51.64
2018-04-19T14:40:40.285Z,52.20
2018-04-19T14:41:40.735Z,51.84
2018-04-19T14:42:41.183Z,51.64
2018-04-19T14:43:41.637Z,52.51
2018-04-19T14:44:42.081Z,52.97
2018-04-19T14:45:42.532Z,53.65
2018-04-19T14:46:42.978Z,53.75
2018-04-19T14:47:43.424Z,53.07
2018-04-19T14:48:43.870Z,52.32
2018-04-19T14:49:44.317Z,52.61
2018-04-19T14:50:44.773Z,51.74
2018-04-19T14:51:45.232Z,52.06
2018-04-19T14:52:45.664Z,51.86
2018-04-19T14:53:46.110Z,51.67
2018-04-19T14:54:46.562Z,51.93
2018-04-19T14:55:47.006Z,52.51
2018-04-19T14:56:47.455Z,52.54
2018-04-19T14:57:47.909Z,52.71
2018-04-19T14:58:48.352Z,51.93
2018-04-19T14:59:48.798Z,51.45
2018-04-19T15:00:49.247Z,51.54
2018-04-19T15:01:49.695Z,51.47
2018-04-19T15:02:50.143Z,51.64
2018-04-19T15:03:50.593Z,52.80
2018-04-19T15:04:51.035Z,52.32
2018-04-19T15:05:51.496Z,53.26
2018-04-19T15:06:51.946Z,53.36
2018-04-19T15:07:52.382Z,53.07
2018-04-19T15:08:52.832Z,53.36
2018-04-19T15:09:53.279Z,52.12
2018-04-19T15:10:53.749Z,52.64
2018-04-19T15:11:54.220Z,52.42
2018-04-19T15:12:54.668Z,53.17
2018-04-19T15:13:55.107Z,53.55
2018-04-19T15:14:55.540Z,53.29
2018-04-19T15:15:55.977Z,51.64
2018-04-19T15:16:56.430Z,51.54